sensor_id;sensor_type;location;lat;lon;timestamp;pressure;altitude;pressure_sealevel;temperature
73937;BMP180;59249;59.736;30.568;2022-08-11T00:02:00;102115.00;;;14.30
73937;BMP180;59249;59.736;30.568;2022-08-11T00:04:35;102119.00;;;14.20
73937;BMP180;59249;59.736;30.568;2022-08-11T00:07:05;102122.00;;;14.20
73937;BMP180;59249;59.736;30.568;2022-08-11T00:09:37;102113.00;;;14.20
73937;BMP180;59249;59.736;30.568;2022-08-11T00:12:13;102110.00;;;14.10
73937;BMP180;59249;59.736;30.568;2022-08-11T00:14:43;102113.00;;;14.10
73937;BMP180;59249;59.736;30.568;2022-08-11T00:17:14;102112.00;;;14.00
73937;BMP180;59249;59.736;30.568;2022-08-11T00:19:47;102110.00;;;14.00
73937;BMP180;59249;59.736;30.568;2022-08-11T00:22:40;102108.00;;;14.00
73937;BMP180;59249;59.736;30.568;2022-08-11T00:25:15;102108.00;;;14.00
73937;BMP180;59249;59.736;30.568;2022-08-11T00:27:46;102112.00;;;14.00
73937;BMP180;59249;59.736;30.568;2022-08-11T00:30:16;102105.00;;;13.90
73937;BMP180;59249;59.736;30.568;2022-08-11T00:32:52;102107.00;;;13.90
73937;BMP180;59249;59.736;30.568;2022-08-11T00:35:29;102109.00;;;13.90
73937;BMP180;59249;59.736;30.568;2022-08-11T00:38:24;102127.00;;;13.80
73937;BMP180;59249;59.736;30.568;2022-08-11T00:41:05;102116.00;;;13.80
73937;BMP180;59249;59.736;30.568;2022-08-11T00:43:53;102114.00;;;13.70
73937;BMP180;59249;59.736;30.568;2022-08-11T00:46:41;102108.00;;;13.60
73937;BMP180;59249;59.736;30.568;2022-08-11T00:49:30;102109.00;;;13.60
73937;BMP180;59249;59.736;30.568;2022-08-11T00:52:37;102103.00;;;13.60
73937;BMP180;59249;59.736;30.568;2022-08-11T00:55:55;102111.00;;;13.50
73937;BMP180;59249;59.736;30.568;2022-08-11T01:02:25;102092.00;;;13.30
73937;BMP180;59249;59.736;30.568;2022-08-11T01:08:40;102094.00;;;13.30
73937;BMP180;59249;59.736;30.568;2022-08-11T01:15:19;102103.00;;;13.10
73937;BMP180;59249;59.736;30.568;2022-08-11T01:19:04;102100.00;;;13.10
73937;BMP180;59249;59.736;30.568;2022-08-11T01:32:20;102102.00;;;13.00
73937;BMP180;59249;59.736;30.568;2022-08-11T01:39:31;102107.00;;;13.00
73937;BMP180;59249;59.736;30.568;2022-08-11T01:43:00;102107.00;;;12.90
73937;BMP180;59249;59.736;30.568;2022-08-11T01:46:15;102095.00;;;12.90
73937;BMP180;59249;59.736;30.568;2022-08-11T01:48:58;102106.00;;;12.90
73937;BMP180;59249;59.736;30.568;2022-08-11T01:52:07;102102.00;;;12.90
73937;BMP180;59249;59.736;30.568;2022-08-11T01:54:51;102105.00;;;12.90
73937;BMP180;59249;59.736;30.568;2022-08-11T01:57:37;102109.00;;;12.90
73937;BMP180;59249;59.736;30.568;2022-08-11T02:00:14;102108.00;;;12.90
73937;BMP180;59249;59.736;30.568;2022-08-11T02:02:51;102117.00;;;12.90
73937;BMP180;59249;59.736;30.568;2022-08-11T02:05:35;102112.00;;;12.90
73937;BMP180;59249;59.736;30.568;2022-08-11T02:08:23;102109.00;;;12.90
73937;BMP180;59249;59.736;30.568;2022-08-11T02:11:20;102095.00;;;12.90
73937;BMP180;59249;59.736;30.568;2022-08-11T02:14:11;102099.00;;;12.80
73937;BMP180;59249;59.736;30.568;2022-08-11T02:16:57;102086.00;;;12.80
73937;BMP180;59249;59.736;30.568;2022-08-11T02:19:39;102096.00;;;12.80
73937;BMP180;59249;59.736;30.568;2022-08-11T02:22:41;102096.00;;;12.80
73937;BMP180;59249;59.736;30.568;2022-08-11T02:25:42;102082.00;;;12.70
73937;BMP180;59249;59.736;30.568;2022-08-11T02:28:21;102084.00;;;12.70
73937;BMP180;59249;59.736;30.568;2022-08-11T02:31:02;102089.00;;;12.70
73937;BMP180;59249;59.736;30.568;2022-08-11T02:34:27;102078.00;;;12.70
73937;BMP180;59249;59.736;30.568;2022-08-11T02:37:15;102080.00;;;12.80
73937;BMP180;59249;59.736;30.568;2022-08-11T02:40:07;102080.00;;;12.90
73937;BMP180;59249;59.736;30.568;2022-08-11T02:42:56;102082.00;;;13.00
73937;BMP180;59249;59.736;30.568;2022-08-11T02:45:47;102070.00;;;13.30
73937;BMP180;59249;59.736;30.568;2022-08-11T02:48:33;102079.00;;;13.50
73937;BMP180;59249;59.736;30.568;2022-08-11T02:51:38;102090.00;;;13.80
73937;BMP180;59249;59.736;30.568;2022-08-11T02:54:22;102083.00;;;14.00
73937;BMP180;59249;59.736;30.568;2022-08-11T02:56:59;102095.00;;;14.10
73937;BMP180;59249;59.736;30.568;2022-08-11T02:59:46;102097.00;;;14.30
73937;BMP180;59249;59.736;30.568;2022-08-11T03:02:30;102095.00;;;14.50
73937;BMP180;59249;59.736;30.568;2022-08-11T03:05:23;102100.00;;;14.70
73937;BMP180;59249;59.736;30.568;2022-08-11T03:08:12;102095.00;;;14.90
73937;BMP180;59249;59.736;30.568;2022-08-11T03:10:53;102097.00;;;14.90
73937;BMP180;59249;59.736;30.568;2022-08-11T03:13:54;102096.00;;;15.00
73937;BMP180;59249;59.736;30.568;2022-08-11T03:16:56;102093.00;;;15.00
73937;BMP180;59249;59.736;30.568;2022-08-11T03:19:37;102091.00;;;14.80
73937;BMP180;59249;59.736;30.568;2022-08-11T03:22:20;102092.00;;;14.70
73937;BMP180;59249;59.736;30.568;2022-08-11T03:24:59;102091.00;;;14.50
73937;BMP180;59249;59.736;30.568;2022-08-11T03:28:00;102087.00;;;14.30
73937;BMP180;59249;59.736;30.568;2022-08-11T03:30:42;102081.00;;;14.20
73937;BMP180;59249;59.736;30.568;2022-08-11T03:33:22;102088.00;;;14.00
73937;BMP180;59249;59.736;30.568;2022-08-11T03:36:36;102084.00;;;14.00
73937;BMP180;59249;59.736;30.568;2022-08-11T03:39:47;102078.00;;;14.00
73937;BMP180;59249;59.736;30.568;2022-08-11T03:42:35;102082.00;;;13.90
73937;BMP180;59249;59.736;30.568;2022-08-11T03:45:21;102078.00;;;13.90
73937;BMP180;59249;59.736;30.568;2022-08-11T03:48:13;102076.00;;;13.90
73937;BMP180;59249;59.736;30.568;2022-08-11T03:51:05;102078.00;;;13.80
73937;BMP180;59249;59.736;30.568;2022-08-11T03:53:59;102081.00;;;13.80
73937;BMP180;59249;59.736;30.568;2022-08-11T03:57:14;102080.00;;;13.80
73937;BMP180;59249;59.736;30.568;2022-08-11T04:03:49;102069.00;;;13.90
73937;BMP180;59249;59.736;30.568;2022-08-11T04:06:41;102073.00;;;14.00
73937;BMP180;59249;59.736;30.568;2022-08-11T04:10:05;102078.00;;;14.10
73937;BMP180;59249;59.736;30.568;2022-08-11T04:13:18;102079.00;;;14.20
73937;BMP180;59249;59.736;30.568;2022-08-11T04:16:40;102071.00;;;14.30
73937;BMP180;59249;59.736;30.568;2022-08-11T04:19:46;102059.00;;;14.30
73937;BMP180;59249;59.736;30.568;2022-08-11T04:22:58;102060.00;;;14.50
73937;BMP180;59249;59.736;30.568;2022-08-11T04:25:48;102057.00;;;14.60
73937;BMP180;59249;59.736;30.568;2022-08-11T04:28:59;102054.00;;;14.70
73937;BMP180;59249;59.736;30.568;2022-08-11T04:31:43;102051.00;;;14.80
73937;BMP180;59249;59.736;30.568;2022-08-11T04:34:50;102058.00;;;14.90
73937;BMP180;59249;59.736;30.568;2022-08-11T04:37:57;102061.00;;;15.00
73937;BMP180;59249;59.736;30.568;2022-08-11T04:45:21;102053.00;;;15.20
73937;BMP180;59249;59.736;30.568;2022-08-11T04:48:16;102053.00;;;15.30
73937;BMP180;59249;59.736;30.568;2022-08-11T04:51:43;102060.00;;;15.50
73937;BMP180;59249;59.736;30.568;2022-08-11T04:54:56;102059.00;;;15.60
73937;BMP180;59249;59.736;30.568;2022-08-11T04:58:12;102049.00;;;15.70
73937;BMP180;59249;59.736;30.568;2022-08-11T05:01:17;102040.00;;;15.90
73937;BMP180;59249;59.736;30.568;2022-08-11T05:04:26;102043.00;;;16.00
73937;BMP180;59249;59.736;30.568;2022-08-11T05:14:31;102039.00;;;16.50
73937;BMP180;59249;59.736;30.568;2022-08-11T05:17:38;102035.00;;;16.60
73937;BMP180;59249;59.736;30.568;2022-08-11T05:20:29;102035.00;;;16.70
73937;BMP180;59249;59.736;30.568;2022-08-11T05:23:25;102037.00;;;16.90
73937;BMP180;59249;59.736;30.568;2022-08-11T05:26:16;102028.00;;;17.00
73937;BMP180;59249;59.736;30.568;2022-08-11T05:29:27;102029.00;;;17.10
73937;BMP180;59249;59.736;30.568;2022-08-11T05:32:24;102029.00;;;17.30
73937;BMP180;59249;59.736;30.568;2022-08-11T05:35:26;102027.00;;;17.40
73937;BMP180;59249;59.736;30.568;2022-08-11T05:38:22;102034.00;;;17.50
73937;BMP180;59249;59.736;30.568;2022-08-11T05:41:10;102024.00;;;17.60
73937;BMP180;59249;59.736;30.568;2022-08-11T05:43:59;102033.00;;;17.80
73937;BMP180;59249;59.736;30.568;2022-08-11T05:46:49;102035.00;;;17.90
73937;BMP180;59249;59.736;30.568;2022-08-11T05:49:36;102033.00;;;18.00
73937;BMP180;59249;59.736;30.568;2022-08-11T05:52:26;102036.00;;;18.00
73937;BMP180;59249;59.736;30.568;2022-08-11T05:55:23;102037.00;;;18.10
73937;BMP180;59249;59.736;30.568;2022-08-11T05:58:33;102038.00;;;18.30
73937;BMP180;59249;59.736;30.568;2022-08-11T06:01:11;102034.00;;;18.30
73937;BMP180;59249;59.736;30.568;2022-08-11T06:03:43;102038.00;;;18.40
73937;BMP180;59249;59.736;30.568;2022-08-11T06:06:31;102032.00;;;18.50
73937;BMP180;59249;59.736;30.568;2022-08-11T06:09:01;102034.00;;;18.60
73937;BMP180;59249;59.736;30.568;2022-08-11T06:11:30;102037.00;;;18.70
73937;BMP180;59249;59.736;30.568;2022-08-11T06:14:11;102036.00;;;18.80
73937;BMP180;59249;59.736;30.568;2022-08-11T06:16:47;102044.00;;;18.80
73937;BMP180;59249;59.736;30.568;2022-08-11T06:19:20;102041.00;;;18.90
73937;BMP180;59249;59.736;30.568;2022-08-11T06:21:51;102047.00;;;19.10
73937;BMP180;59249;59.736;30.568;2022-08-11T06:24:20;102041.00;;;19.10
73937;BMP180;59249;59.736;30.568;2022-08-11T06:26:51;102041.00;;;19.20
73937;BMP180;59249;59.736;30.568;2022-08-11T06:29:46;102043.00;;;19.30
73937;BMP180;59249;59.736;30.568;2022-08-11T06:32:26;102042.00;;;19.40
73937;BMP180;59249;59.736;30.568;2022-08-11T06:35:09;102044.00;;;19.50
73937;BMP180;59249;59.736;30.568;2022-08-11T06:37:54;102061.00;;;19.60
73937;BMP180;59249;59.736;30.568;2022-08-11T06:40:37;102054.00;;;19.70
73937;BMP180;59249;59.736;30.568;2022-08-11T06:43:45;102054.00;;;19.80
73937;BMP180;59249;59.736;30.568;2022-08-11T06:46:28;102050.00;;;19.90
73937;BMP180;59249;59.736;30.568;2022-08-11T06:49:02;102056.00;;;20.00
73937;BMP180;59249;59.736;30.568;2022-08-11T06:51:33;102054.00;;;20.00
73937;BMP180;59249;59.736;30.568;2022-08-11T06:54:12;102049.00;;;20.10
73937;BMP180;59249;59.736;30.568;2022-08-11T06:56:47;102055.00;;;20.20
73937;BMP180;59249;59.736;30.568;2022-08-11T06:59:54;102050.00;;;20.30
73937;BMP180;59249;59.736;30.568;2022-08-11T07:02:45;102057.00;;;20.50
73937;BMP180;59249;59.736;30.568;2022-08-11T07:05:24;102056.00;;;20.50
73937;BMP180;59249;59.736;30.568;2022-08-11T07:15:08;102045.00;;;20.60
73937;BMP180;59249;59.736;30.568;2022-08-11T07:18:20;102049.00;;;20.60
73937;BMP180;59249;59.736;30.568;2022-08-11T07:21:19;102040.00;;;20.70
73937;BMP180;59249;59.736;30.568;2022-08-11T07:24:33;102043.00;;;20.80
73937;BMP180;59249;59.736;30.568;2022-08-11T07:27:34;102048.00;;;20.80
73937;BMP180;59249;59.736;30.568;2022-08-11T07:30:26;102052.00;;;20.80
73937;BMP180;59249;59.736;30.568;2022-08-11T07:33:00;102044.00;;;20.80
73937;BMP180;59249;59.736;30.568;2022-08-11T07:35:32;102041.00;;;20.90
73937;BMP180;59249;59.736;30.568;2022-08-11T07:38:06;102037.00;;;20.90
73937;BMP180;59249;59.736;30.568;2022-08-11T07:40:42;102031.00;;;21.00
73937;BMP180;59249;59.736;30.568;2022-08-11T07:43:13;102022.00;;;21.00
73937;BMP180;59249;59.736;30.568;2022-08-11T07:45:42;102036.00;;;21.00
73937;BMP180;59249;59.736;30.568;2022-08-11T07:48:30;102041.00;;;21.10
73937;BMP180;59249;59.736;30.568;2022-08-11T07:51:18;102028.00;;;21.10
73937;BMP180;59249;59.736;30.568;2022-08-11T07:54:07;102030.00;;;21.20
73937;BMP180;59249;59.736;30.568;2022-08-11T07:56:44;102021.00;;;21.20
73937;BMP180;59249;59.736;30.568;2022-08-11T07:59:34;102027.00;;;21.30
73937;BMP180;59249;59.736;30.568;2022-08-11T08:02:43;102020.00;;;21.30
73937;BMP180;59249;59.736;30.568;2022-08-11T08:05:30;102024.00;;;21.30
73937;BMP180;59249;59.736;30.568;2022-08-11T08:08:17;102012.00;;;21.40
73937;BMP180;59249;59.736;30.568;2022-08-11T08:11:07;102018.00;;;21.40
73937;BMP180;59249;59.736;30.568;2022-08-11T08:13:56;102011.00;;;21.50
73937;BMP180;59249;59.736;30.568;2022-08-11T08:16:44;102003.00;;;21.50
73937;BMP180;59249;59.736;30.568;2022-08-11T08:19:32;102019.00;;;21.50
73937;BMP180;59249;59.736;30.568;2022-08-11T08:22:04;102012.00;;;21.60
73937;BMP180;59249;59.736;30.568;2022-08-11T08:24:54;102022.00;;;21.70
73937;BMP180;59249;59.736;30.568;2022-08-11T08:27:26;102020.00;;;21.70
73937;BMP180;59249;59.736;30.568;2022-08-11T08:30:01;102033.00;;;21.80
73937;BMP180;59249;59.736;30.568;2022-08-11T08:32:52;102024.00;;;21.80
73937;BMP180;59249;59.736;30.568;2022-08-11T08:35:27;102027.00;;;21.90
73937;BMP180;59249;59.736;30.568;2022-08-11T08:37:59;102027.00;;;22.00
73937;BMP180;59249;59.736;30.568;2022-08-11T08:40:32;102013.00;;;22.10
73937;BMP180;59249;59.736;30.568;2022-08-11T08:43:08;102031.00;;;22.20
73937;BMP180;59249;59.736;30.568;2022-08-11T08:45:41;102014.00;;;22.20
73937;BMP180;59249;59.736;30.568;2022-08-11T08:48:13;102018.00;;;22.30
73937;BMP180;59249;59.736;30.568;2022-08-11T08:50:57;102021.00;;;22.30
73937;BMP180;59249;59.736;30.568;2022-08-11T08:53:53;102021.00;;;22.40
73937;BMP180;59249;59.736;30.568;2022-08-11T08:56:30;102022.00;;;22.50
73937;BMP180;59249;59.736;30.568;2022-08-11T08:59:03;102015.00;;;22.50
73937;BMP180;59249;59.736;30.568;2022-08-11T09:01:41;102024.00;;;22.60
73937;BMP180;59249;59.736;30.568;2022-08-11T09:04:22;102016.00;;;22.60
73937;BMP180;59249;59.736;30.568;2022-08-11T09:06:52;102029.00;;;22.70
73937;BMP180;59249;59.736;30.568;2022-08-11T09:09:23;102030.00;;;22.70
73937;BMP180;59249;59.736;30.568;2022-08-11T09:11:54;102026.00;;;22.80
73937;BMP180;59249;59.736;30.568;2022-08-11T09:14:35;102021.00;;;22.80
73937;BMP180;59249;59.736;30.568;2022-08-11T09:17:23;102026.00;;;22.80
73937;BMP180;59249;59.736;30.568;2022-08-11T09:19:56;102020.00;;;22.90
73937;BMP180;59249;59.736;30.568;2022-08-11T09:22:35;102015.00;;;22.90
73937;BMP180;59249;59.736;30.568;2022-08-11T09:25:44;102020.00;;;22.90
73937;BMP180;59249;59.736;30.568;2022-08-11T09:28:33;102014.00;;;23.10
73937;BMP180;59249;59.736;30.568;2022-08-11T09:31:10;102008.00;;;23.20
73937;BMP180;59249;59.736;30.568;2022-08-11T09:33:45;101988.00;;;23.30
73937;BMP180;59249;59.736;30.568;2022-08-11T09:36:17;102007.00;;;23.20
73937;BMP180;59249;59.736;30.568;2022-08-11T09:39:05;102000.00;;;23.20
73937;BMP180;59249;59.736;30.568;2022-08-11T09:41:52;101999.00;;;23.30
73937;BMP180;59249;59.736;30.568;2022-08-11T09:44:31;101998.00;;;23.40
73937;BMP180;59249;59.736;30.568;2022-08-11T09:47:25;102008.00;;;23.40
73937;BMP180;59249;59.736;30.568;2022-08-11T09:49:58;102003.00;;;23.30
73937;BMP180;59249;59.736;30.568;2022-08-11T09:52:35;102005.00;;;23.50
73937;BMP180;59249;59.736;30.568;2022-08-11T09:55:26;101996.00;;;23.60
73937;BMP180;59249;59.736;30.568;2022-08-11T09:58:01;101990.00;;;23.60
73937;BMP180;59249;59.736;30.568;2022-08-11T10:01:03;101989.00;;;23.70
73937;BMP180;59249;59.736;30.568;2022-08-11T10:03:38;101994.00;;;23.80
73937;BMP180;59249;59.736;30.568;2022-08-11T10:06:13;101993.00;;;23.90
73937;BMP180;59249;59.736;30.568;2022-08-11T10:09:09;102001.00;;;23.80
73937;BMP180;59249;59.736;30.568;2022-08-11T10:11:40;101985.00;;;23.80
73937;BMP180;59249;59.736;30.568;2022-08-11T10:14:21;101995.00;;;23.80
73937;BMP180;59249;59.736;30.568;2022-08-11T10:17:14;101993.00;;;23.80
73937;BMP180;59249;59.736;30.568;2022-08-11T10:19:49;101998.00;;;23.80
73937;BMP180;59249;59.736;30.568;2022-08-11T10:22:33;101982.00;;;23.70
73937;BMP180;59249;59.736;30.568;2022-08-11T10:25:20;101981.00;;;23.80
73937;BMP180;59249;59.736;30.568;2022-08-11T10:28:08;101985.00;;;23.90
73937;BMP180;59249;59.736;30.568;2022-08-11T10:30:58;101983.00;;;23.90
73937;BMP180;59249;59.736;30.568;2022-08-11T10:33:48;101984.00;;;23.90
73937;BMP180;59249;59.736;30.568;2022-08-11T10:36:31;101981.00;;;23.90
73937;BMP180;59249;59.736;30.568;2022-08-11T10:39:03;101985.00;;;24.00
73937;BMP180;59249;59.736;30.568;2022-08-11T10:41:34;101980.00;;;24.10
73937;BMP180;59249;59.736;30.568;2022-08-11T10:44:37;101985.00;;;24.00
73937;BMP180;59249;59.736;30.568;2022-08-11T10:47:10;101995.00;;;24.20
73937;BMP180;59249;59.736;30.568;2022-08-11T10:49:57;101984.00;;;24.10
73937;BMP180;59249;59.736;30.568;2022-08-11T10:52:47;101983.00;;;24.10
73937;BMP180;59249;59.736;30.568;2022-08-11T10:55:35;101972.00;;;24.10
73937;BMP180;59249;59.736;30.568;2022-08-11T10:58:24;101968.00;;;24.20
73937;BMP180;59249;59.736;30.568;2022-08-11T11:01:11;101975.00;;;24.20
73937;BMP180;59249;59.736;30.568;2022-08-11T11:03:42;101967.00;;;24.30
73937;BMP180;59249;59.736;30.568;2022-08-11T11:06:21;101970.00;;;24.20
73937;BMP180;59249;59.736;30.568;2022-08-11T11:11:52;101973.00;;;24.40
73937;BMP180;59249;59.736;30.568;2022-08-11T11:14:42;101974.00;;;24.50
73937;BMP180;59249;59.736;30.568;2022-08-11T11:17:39;101970.00;;;24.60
73937;BMP180;59249;59.736;30.568;2022-08-11T11:20:25;101966.00;;;24.70
73937;BMP180;59249;59.736;30.568;2022-08-11T11:23:04;101957.00;;;24.70
73937;BMP180;59249;59.736;30.568;2022-08-11T11:25:49;101956.00;;;24.80
73937;BMP180;59249;59.736;30.568;2022-08-11T11:29:03;101940.00;;;24.90
73937;BMP180;59249;59.736;30.568;2022-08-11T11:32:17;101955.00;;;24.90
73937;BMP180;59249;59.736;30.568;2022-08-11T11:35:15;101947.00;;;24.80
73937;BMP180;59249;59.736;30.568;2022-08-11T11:37:54;101941.00;;;24.80
73937;BMP180;59249;59.736;30.568;2022-08-11T11:40:32;101942.00;;;24.70
73937;BMP180;59249;59.736;30.568;2022-08-11T11:43:04;101960.00;;;24.80
73937;BMP180;59249;59.736;30.568;2022-08-11T11:45:34;101940.00;;;24.90
73937;BMP180;59249;59.736;30.568;2022-08-11T11:48:04;101930.00;;;24.90
73937;BMP180;59249;59.736;30.568;2022-08-11T11:50:35;101933.00;;;24.90
73937;BMP180;59249;59.736;30.568;2022-08-11T11:53:06;101924.00;;;25.00
73937;BMP180;59249;59.736;30.568;2022-08-11T11:55:37;101925.00;;;24.80
73937;BMP180;59249;59.736;30.568;2022-08-11T11:58:08;101930.00;;;24.80
73937;BMP180;59249;59.736;30.568;2022-08-11T12:00:56;101910.00;;;24.90
73937;BMP180;59249;59.736;30.568;2022-08-11T12:03:49;101915.00;;;25.00
73937;BMP180;59249;59.736;30.568;2022-08-11T12:06:21;101918.00;;;25.10
73937;BMP180;59249;59.736;30.568;2022-08-11T12:08:54;101917.00;;;25.10
73937;BMP180;59249;59.736;30.568;2022-08-11T12:11:26;101910.00;;;25.30
73937;BMP180;59249;59.736;30.568;2022-08-11T12:14:18;101918.00;;;25.40
73937;BMP180;59249;59.736;30.568;2022-08-11T12:16:48;101921.00;;;25.50
73937;BMP180;59249;59.736;30.568;2022-08-11T12:19:22;101920.00;;;25.40
73937;BMP180;59249;59.736;30.568;2022-08-11T12:22:01;101900.00;;;25.40
73937;BMP180;59249;59.736;30.568;2022-08-11T12:24:48;101908.00;;;25.30
73937;BMP180;59249;59.736;30.568;2022-08-11T12:27:36;101911.00;;;25.40
73937;BMP180;59249;59.736;30.568;2022-08-11T12:30:12;101906.00;;;25.40
73937;BMP180;59249;59.736;30.568;2022-08-11T12:32:43;101910.00;;;25.40
73937;BMP180;59249;59.736;30.568;2022-08-11T12:35:14;101903.00;;;25.40
73937;BMP180;59249;59.736;30.568;2022-08-11T12:37:44;101904.00;;;25.20
73937;BMP180;59249;59.736;30.568;2022-08-11T12:40:18;101905.00;;;25.20
73937;BMP180;59249;59.736;30.568;2022-08-11T12:43:31;101907.00;;;25.30
73937;BMP180;59249;59.736;30.568;2022-08-11T12:46:29;101898.00;;;25.30
73937;BMP180;59249;59.736;30.568;2022-08-11T12:49:06;101898.00;;;25.40
73937;BMP180;59249;59.736;30.568;2022-08-11T12:52:01;101897.00;;;25.50
73937;BMP180;59249;59.736;30.568;2022-08-11T12:54:47;101885.00;;;25.50
73937;BMP180;59249;59.736;30.568;2022-08-11T12:57:27;101891.00;;;25.50
73937;BMP180;59249;59.736;30.568;2022-08-11T13:00:17;101900.00;;;25.40
73937;BMP180;59249;59.736;30.568;2022-08-11T13:03:07;101904.00;;;25.40
73937;BMP180;59249;59.736;30.568;2022-08-11T13:05:56;101886.00;;;25.40
73937;BMP180;59249;59.736;30.568;2022-08-11T13:08:28;101902.00;;;25.40
73937;BMP180;59249;59.736;30.568;2022-08-11T13:11:02;101885.00;;;25.40
73937;BMP180;59249;59.736;30.568;2022-08-11T13:14:13;101891.00;;;25.40
73937;BMP180;59249;59.736;30.568;2022-08-11T13:16:44;101889.00;;;25.30
73937;BMP180;59249;59.736;30.568;2022-08-11T13:19:32;101897.00;;;25.40
73937;BMP180;59249;59.736;30.568;2022-08-11T13:22:03;101865.00;;;25.40
73937;BMP180;59249;59.736;30.568;2022-08-11T13:24:34;101896.00;;;25.30
73937;BMP180;59249;59.736;30.568;2022-08-11T13:27:05;101878.00;;;25.30
73937;BMP180;59249;59.736;30.568;2022-08-11T13:29:35;101891.00;;;25.40
73937;BMP180;59249;59.736;30.568;2022-08-11T13:32:05;101885.00;;;25.50
73937;BMP180;59249;59.736;30.568;2022-08-11T13:34:42;101891.00;;;25.30
73937;BMP180;59249;59.736;30.568;2022-08-11T13:37:13;101893.00;;;25.40
73937;BMP180;59249;59.736;30.568;2022-08-11T13:39:45;101881.00;;;25.40
73937;BMP180;59249;59.736;30.568;2022-08-11T13:42:18;101879.00;;;25.30
73937;BMP180;59249;59.736;30.568;2022-08-11T13:44:48;101881.00;;;25.30
73937;BMP180;59249;59.736;30.568;2022-08-11T13:47:18;101885.00;;;25.30
73937;BMP180;59249;59.736;30.568;2022-08-11T13:49:53;101882.00;;;25.40
73937;BMP180;59249;59.736;30.568;2022-08-11T13:52:25;101878.00;;;25.30
73937;BMP180;59249;59.736;30.568;2022-08-11T13:54:55;101887.00;;;25.30
73937;BMP180;59249;59.736;30.568;2022-08-11T13:57:25;101878.00;;;25.30
73937;BMP180;59249;59.736;30.568;2022-08-11T14:00:20;101879.00;;;25.30
73937;BMP180;59249;59.736;30.568;2022-08-11T14:02:55;101874.00;;;25.30
73937;BMP180;59249;59.736;30.568;2022-08-11T14:05:28;101877.00;;;25.40
73937;BMP180;59249;59.736;30.568;2022-08-11T14:08:02;101857.00;;;25.40
73937;BMP180;59249;59.736;30.568;2022-08-11T14:11:00;101870.00;;;25.30
73937;BMP180;59249;59.736;30.568;2022-08-11T14:14:14;101873.00;;;25.40
73937;BMP180;59249;59.736;30.568;2022-08-11T14:16:49;101865.00;;;25.40
73937;BMP180;59249;59.736;30.568;2022-08-11T14:19:24;101863.00;;;25.30
73937;BMP180;59249;59.736;30.568;2022-08-11T14:21:58;101852.00;;;25.30
73937;BMP180;59249;59.736;30.568;2022-08-11T14:24:37;101859.00;;;25.30
73937;BMP180;59249;59.736;30.568;2022-08-11T14:27:11;101863.00;;;25.30
73937;BMP180;59249;59.736;30.568;2022-08-11T14:30:04;101859.00;;;25.40
73937;BMP180;59249;59.736;30.568;2022-08-11T14:32:55;101855.00;;;25.60
73937;BMP180;59249;59.736;30.568;2022-08-11T14:35:26;101849.00;;;25.80
73937;BMP180;59249;59.736;30.568;2022-08-11T14:37:57;101843.00;;;26.00
73937;BMP180;59249;59.736;30.568;2022-08-11T14:40:31;101848.00;;;26.20
73937;BMP180;59249;59.736;30.568;2022-08-11T14:43:18;101830.00;;;26.40
73937;BMP180;59249;59.736;30.568;2022-08-11T14:46:25;101830.00;;;26.60
73937;BMP180;59249;59.736;30.568;2022-08-11T14:49:13;101829.00;;;26.80
73937;BMP180;59249;59.736;30.568;2022-08-11T14:51:43;101815.00;;;26.90
73937;BMP180;59249;59.736;30.568;2022-08-11T14:54:16;101826.00;;;27.00
73937;BMP180;59249;59.736;30.568;2022-08-11T14:56:59;101822.00;;;27.10
73937;BMP180;59249;59.736;30.568;2022-08-11T14:59:29;101813.00;;;27.10
73937;BMP180;59249;59.736;30.568;2022-08-11T15:02:02;101820.00;;;27.40
73937;BMP180;59249;59.736;30.568;2022-08-11T15:04:51;101814.00;;;27.60
73937;BMP180;59249;59.736;30.568;2022-08-11T15:07:24;101813.00;;;27.70
73937;BMP180;59249;59.736;30.568;2022-08-11T15:10:05;101809.00;;;27.70
73937;BMP180;59249;59.736;30.568;2022-08-11T15:12:40;101814.00;;;27.80
73937;BMP180;59249;59.736;30.568;2022-08-11T15:15:11;101816.00;;;27.90
73937;BMP180;59249;59.736;30.568;2022-08-11T15:18:01;101815.00;;;27.70
73937;BMP180;59249;59.736;30.568;2022-08-11T15:20:32;101811.00;;;27.90
73937;BMP180;59249;59.736;30.568;2022-08-11T15:23:20;101810.00;;;27.70
73937;BMP180;59249;59.736;30.568;2022-08-11T15:26:10;101813.00;;;27.70
73937;BMP180;59249;59.736;30.568;2022-08-11T15:28:46;101821.00;;;27.70
73937;BMP180;59249;59.736;30.568;2022-08-11T15:31:35;101818.00;;;28.10
73937;BMP180;59249;59.736;30.568;2022-08-11T15:34:26;101820.00;;;28.20
73937;BMP180;59249;59.736;30.568;2022-08-11T15:37:16;101818.00;;;28.50
73937;BMP180;59249;59.736;30.568;2022-08-11T15:40:03;101819.00;;;28.50
73937;BMP180;59249;59.736;30.568;2022-08-11T15:43:04;101819.00;;;28.50
73937;BMP180;59249;59.736;30.568;2022-08-11T15:45:56;101820.00;;;28.60
73937;BMP180;59249;59.736;30.568;2022-08-11T15:48:35;101822.00;;;28.60
73937;BMP180;59249;59.736;30.568;2022-08-11T15:51:28;101816.00;;;28.50
73937;BMP180;59249;59.736;30.568;2022-08-11T15:54:04;101813.00;;;28.40
73937;BMP180;59249;59.736;30.568;2022-08-11T15:56:40;101814.00;;;28.40
73937;BMP180;59249;59.736;30.568;2022-08-11T15:59:16;101811.00;;;28.20
73937;BMP180;59249;59.736;30.568;2022-08-11T16:02:18;101821.00;;;28.10
73937;BMP180;59249;59.736;30.568;2022-08-11T16:05:11;101813.00;;;27.60
73937;BMP180;59249;59.736;30.568;2022-08-11T16:08:05;101810.00;;;27.70
73937;BMP180;59249;59.736;30.568;2022-08-11T16:10:39;101825.00;;;27.70
73937;BMP180;59249;59.736;30.568;2022-08-11T16:13:12;101810.00;;;27.70
73937;BMP180;59249;59.736;30.568;2022-08-11T16:16:02;101813.00;;;27.90
73937;BMP180;59249;59.736;30.568;2022-08-11T16:18:47;101825.00;;;28.10